Time;durP1;ratioP1;P1;durP2;ratioP2;P2;SDS_P1;SDS_P2;PMS_P1;PMS_P2;Temp;Humidity;BMP_temperature;BMP_pressure;BME280_temperature;BME280_humidity;BME280_pressure;Samples;Min_cycle;Max_cycle;Signal;HPM_P1;HPM_P2
2022/01/25 00:26:32;;;;;;;4.32;1.42;;;;;;;9.62;100.00;102558.06;5072144;28;20052;-88
2022/01/25 00:29:27;;;;;;;4.10;1.45;;;;;;;9.72;100.00;102554.53;5071986;28;20052;-88
2022/01/25 00:31:55;;;;;;;3.55;1.30;;;;;;;10.03;100.00;102564.81;5085702;28;20075;-86
2022/01/25 00:34:22;;;;;;;4.65;1.30;;;;;;;9.76;100.00;102537.94;5116776;27;20035;-88
2022/01/25 00:36:49;;;;;;;6.15;1.70;;;;;;;9.81;100.00;102554.47;5135126;27;20070;-87
2022/01/25 00:39:16;;;;;;;5.13;1.60;;;;;;;9.54;100.00;102558.06;5117190;27;20054;-87
2022/01/25 00:41:43;;;;;;;4.97;1.50;;;;;;;9.07;100.00;102561.72;5134113;27;20051;-87
2022/01/25 00:44:12;;;;;;;4.93;1.70;;;;;;;9.17;100.00;102581.75;5116570;27;20054;-87
2022/01/25 00:46:39;;;;;;;5.25;1.67;;;;;;;8.93;100.00;102573.03;5117011;27;20055;-87
2022/01/25 00:49:07;;;;;;;5.00;1.92;;;;;;;8.55;100.00;102541.72;5116790;27;20141;-87
2022/01/25 00:51:57;;;;;;;7.10;2.38;;;;;;;8.38;100.00;102562.59;5121382;27;20061;-88
2022/01/25 00:56:50;;;;;;;7.05;2.10;;;;;;;8.72;100.00;102571.31;5134397;27;20057;-88
2022/01/25 00:59:24;;;;;;;6.72;2.08;;;;;;;8.69;100.00;102549.56;5117019;27;20047;-88
2022/01/25 01:01:53;;;;;;;7.28;2.65;;;;;;;8.88;100.00;102555.66;5132710;27;20039;-88
2022/01/25 01:04:21;;;;;;;7.47;2.58;;;;;;;8.73;100.00;102556.53;5133328;27;20047;-88
2022/01/25 01:06:48;;;;;;;8.73;2.90;;;;;;;8.69;100.00;102544.34;5143879;27;20043;-88
2022/01/25 01:09:17;;;;;;;5.82;2.03;;;;;;;8.77;100.00;102558.28;5135063;27;20078;-88
2022/01/25 01:12:00;;;;;;;8.55;2.88;;;;;;;8.47;100.00;102514.78;5115301;27;20495;-89
2022/01/25 01:31:17;;;;;;;4.60;1.70;;;;;;;8.78;100.00;102515.59;5134293;27;20492;-88
2022/01/25 01:36:58;;;;;;;4.32;1.52;;;;;;;9.12;100.00;102519.03;5134330;27;20622;-87
2022/01/25 01:42:35;;;;;;;4.75;1.60;;;;;;;9.21;100.00;102515.50;5130793;27;20047;-87
2022/01/25 01:47:41;;;;;;;7.32;1.92;;;;;;;8.80;100.00;102516.50;5131142;27;20047;-87
2022/01/25 01:50:12;;;;;;;5.78;1.88;;;;;;;8.57;100.00;102506.06;5133334;27;20410;-88
2022/01/25 01:52:39;;;;;;;5.75;1.92;;;;;;;8.44;100.00;102499.09;5115936;27;20084;-88
2022/01/25 01:55:08;;;;;;;6.00;2.22;;;;;;;8.49;100.00;102498.22;5113281;27;20047;-87
2022/01/25 01:57:35;;;;;;;6.20;2.00;;;;;;;8.59;100.00;102496.50;5133785;27;20054;-88
2022/01/25 02:00:04;;;;;;;5.80;2.10;;;;;;;8.54;100.00;102519.13;5132476;27;20047;-87
2022/01/25 02:02:31;;;;;;;6.30;1.90;;;;;;;8.49;100.00;102507.81;5095544;28;20051;-87
2022/01/25 02:04:58;;;;;;;5.32;1.88;;;;;;;8.53;100.00;102501.72;5110618;27;20473;-87
2022/01/25 02:07:24;;;;;;;6.20;2.10;;;;;;;8.60;100.00;102510.41;5115518;28;20057;-87
2022/01/25 02:09:51;;;;;;;5.32;1.75;;;;;;;8.43;100.00;102486.91;5111127;28;20054;-87
2022/01/25 02:12:18;;;;;;;7.88;2.08;;;;;;;8.48;100.00;102506.94;5114111;28;20500;-87
2022/01/25 02:14:47;;;;;;;5.13;1.67;;;;;;;8.25;100.00;102480.81;5131609;28;20043;-88
2022/01/25 02:23:18;;;;;;;4.07;1.50;;;;;;;8.34;100.00;102519.09;5107851;28;20051;-88
2022/01/25 02:25:46;;;;;;;5.07;1.83;;;;;;;8.29;100.00;102505.19;5115093;28;20043;-88
2022/01/25 02:28:13;;;;;;;5.05;1.67;;;;;;;8.42;100.00;102506.03;5115085;28;20500;-87
2022/01/25 02:30:41;;;;;;;5.57;1.67;;;;;;;8.48;100.00;102514.78;5114484;28;20040;-87
2022/01/25 02:33:08;;;;;;;4.32;1.45;;;;;;;8.46;100.00;102508.66;5114927;27;20134;-87
2022/01/25 02:35:37;;;;;;;4.07;1.40;;;;;;;8.38;100.00;102504.31;5115755;28;20044;-87
2022/01/25 02:38:03;;;;;;;4.15;1.70;;;;;;;8.24;100.00;102512.13;5115492;28;20659;-88
2022/01/25 02:40:44;;;;;;;7.05;2.65;;;;;;;8.05;100.00;102499.06;5114580;28;20046;-86
2022/01/25 02:43:15;;;;;;;6.15;1.73;;;;;;;7.93;100.00;102494.72;5113500;28;20043;-87
2022/01/25 02:45:45;;;;;;;7.15;1.88;;;;;;;7.79;100.00;102499.00;5115535;28;20050;-87
2022/01/25 02:48:30;;;;;;;7.28;1.73;;;;;;;7.87;100.00;102496.44;5132787;28;20043;-88
2022/01/25 02:51:01;;;;;;;4.40;1.40;;;;;;;7.94;100.00;102503.41;5133132;28;20051;-87
2022/01/25 02:53:28;;;;;;;6.05;1.70;;;;;;;7.86;100.00;102499.91;5115369;28;20054;-87
2022/01/25 02:55:56;;;;;;;3.97;1.55;;;;;;;7.87;100.00;102501.66;5114584;28;20046;-87
2022/01/25 02:58:23;;;;;;;5.00;1.80;;;;;;;7.86;100.00;102511.22;5113982;28;20137;-87
2022/01/25 03:00:49;;;;;;;7.35;1.80;;;;;;;7.91;100.00;102506.84;5124410;28;20047;-87
2022/01/25 03:03:16;;;;;;;5.65;1.70;;;;;;;7.67;100.00;102483.38;5107374;28;20477;-87
2022/01/25 03:05:44;;;;;;;4.53;1.67;;;;;;;7.72;100.00;102505.97;5115277;28;20500;-87
2022/01/25 03:08:14;;;;;;;6.45;1.83;;;;;;;7.41;100.00;102490.22;5110586;28;20508;-87
2022/01/25 03:10:45;;;;;;;4.60;1.73;;;;;;;7.20;100.00;102498.81;5113595;28;20520;-87
2022/01/25 03:13:18;;;;;;;7.07;2.13;;;;;;;7.22;100.00;102514.44;5128984;27;20047;-87
2022/01/25 03:21:04;;;;;;;5.70;2.20;;;;;;;7.16;100.00;102507.47;5127320;27;20047;-87
2022/01/25 03:23:32;;;;;;;6.78;2.00;;;;;;;7.16;100.00;102493.59;5099109;28;20047;-87
2022/01/25 03:25:59;;;;;;;4.13;1.60;;;;;;;7.32;100.00;102487.56;5114271;27;20047;-87
2022/01/25 03:28:26;;;;;;;6.05;1.98;;;;;;;7.16;100.00;102476.22;5136018;27;20050;-87
2022/01/25 03:30:52;;;;;;;5.50;2.00;;;;;;;7.25;100.00;102472.78;5117432;27;20047;-87
2022/01/25 03:33:21;;;;;;;4.97;1.70;;;;;;;7.43;100.00;102463.28;5117720;27;20653;-86
2022/01/25 03:35:48;;;;;;;4.22;1.60;;;;;;;7.58;100.00;102492.03;5117697;27;20457;-87
2022/01/25 03:38:15;;;;;;;8.15;2.22;;;;;;;7.48;100.00;102483.28;5118465;27;20055;-87
2022/01/25 03:40:42;;;;;;;6.22;1.80;;;;;;;7.18;100.00;102438.00;5129681;27;20043;-87
2022/01/25 03:43:13;;;;;;;5.82;1.77;;;;;;;7.01;100.00;102424.06;5129373;27;20051;-87
2022/01/25 03:45:43;;;;;;;5.70;2.70;;;;;;;7.35;100.00;102458.94;5097889;28;20040;-87
2022/01/25 03:50:43;;;;;;;4.65;1.70;;;;;;;7.50;100.00;102459.84;5135316;27;20043;-87
2022/01/25 03:53:12;;;;;;;5.00;1.80;;;;;;;7.46;100.00;102474.59;5117901;27;20043;-87
2022/01/25 03:55:39;;;;;;;5.63;2.28;;;;;;;7.27;100.00;102481.47;5135044;27;20126;-87
2022/01/25 03:58:07;;;;;;;5.53;1.80;;;;;;;7.38;100.00;102476.31;5135254;27;20400;-87
2022/01/25 04:00:37;;;;;;;3.95;1.70;;;;;;;7.55;100.00;102477.22;5138177;27;20050;-87
2022/01/25 04:03:11;;;;;;;9.43;2.10;;;;;;;7.21;100.00;102473.66;5142672;27;20640;-87
2022/01/25 04:05:49;;;;;;;5.47;1.98;;;;;;;7.15;100.00;102465.78;5119363;27;20035;-87
2022/01/25 04:08:17;;;;;;;5.68;1.80;;;;;;;7.14;100.00;102464.94;5114437;28;20051;-87
2022/01/25 04:10:45;;;;;;;4.75;2.00;;;;;;;7.28;100.00;102464.09;5100804;28;20402;-88
2022/01/25 04:13:12;;;;;;;5.25;1.73;;;;;;;7.51;100.00;102465.06;5097644;28;20044;-88
2022/01/25 04:15:42;;;;;;;4.05;1.70;;;;;;;7.31;100.00;102456.31;5097435;28;20050;-88
2022/01/25 04:18:28;;;;;;;6.15;1.98;;;;;;;7.43;100.00;102476.31;5111982;27;20511;-88
2022/01/25 04:21:09;;;;;;;7.57;2.53;;;;;;;6.92;100.00;102450.06;5116261;27;20051;-87
2022/01/25 04:26:21;;;;;;;6.47;2.00;;;;;;;7.02;100.00;102457.91;5134495;27;20047;-88
2022/01/25 04:28:48;;;;;;;4.95;1.75;;;;;;;7.17;100.00;102445.81;5135268;27;20054;-88
2022/01/25 04:31:17;;;;;;;5.30;1.90;;;;;;;7.01;100.00;102453.59;5115300;27;20051;-88
2022/01/25 04:34:06;;;;;;;4.10;1.85;;;;;;;7.07;100.00;102447.53;5117723;27;20059;-88
2022/01/25 04:48:46;;;;;;;6.68;2.28;;;;;;;6.82;100.00;102417.91;5135380;27;20039;-88
2022/01/25 04:55:48;;;;;;;8.13;2.00;;;;;;;6.87;100.00;102451.75;5135175;27;20043;-89
2022/01/25 04:58:23;;;;;;;7.20;2.20;;;;;;;6.70;100.00;102459.50;5117471;27;20059;-88
2022/01/25 05:00:51;;;;;;;5.00;2.08;;;;;;;6.58;100.00;102447.25;5116300;27;20054;-89
2022/01/25 05:03:29;;;;;;;7.57;2.85;;;;;;;6.43;100.00;102420.28;5137039;27;20071;-89
2022/01/25 05:06:07;;;;;;;5.53;2.10;;;;;;;6.60;100.00;102455.94;5135819;27;20613;-88
2022/01/25 05:08:46;;;;;;;13.15;3.63;;;;;;;6.15;100.00;102414.00;5116124;27;20051;-88
2022/01/25 05:24:21;;;;;;;7.53;2.65;;;;;;;6.06;100.00;102390.53;5114198;28;20378;-88
2022/01/25 05:26:48;;;;;;;5.60;1.90;;;;;;;6.05;100.00;102375.78;5095545;28;20051;-91
2022/01/25 05:29:14;;;;;;;6.65;2.33;;;;;;;6.25;100.00;102399.34;5097024;28;20051;-90
2022/01/25 05:31:41;;;;;;;7.28;2.17;;;;;;;6.38;100.00;102418.53;5113507;28;20050;-89
2022/01/25 05:34:08;;;;;;;5.63;2.20;;;;;;;6.28;100.00;102420.16;5099603;27;20053;-89
2022/01/25 05:36:37;;;;;;;6.35;2.08;;;;;;;6.44;100.00;102427.22;5112625;28;20040;-90
2022/01/25 05:39:11;;;;;;;5.20;2.00;;;;;;;6.43;100.00;102402.06;5113980;28;20387;-90
2022/01/25 05:41:39;;;;;;;7.00;1.98;;;;;;;5.92;100.00;102385.19;5116027;27;20043;-90
2022/01/25 05:47:06;;;;;;;7.88;1.65;;;;;;;5.97;100.00;102388.75;5125222;27;20039;-88
2022/01/25 05:49:38;;;;;;;5.47;2.05;;;;;;;5.90;100.00;102420.72;5116125;27;21179;-88
2022/01/25 05:52:08;;;;;;;5.65;2.25;;;;;;;6.18;100.00;102424.44;5114348;27;20059;-86
2022/01/25 05:54:36;;;;;;;7.93;2.10;;;;;;;6.11;100.00;102387.97;5115794;27;20137;-87
2022/01/25 05:57:03;;;;;;;3.85;1.65;;;;;;;6.39;100.00;102412.44;5116237;27;20042;-88
2022/01/25 05:59:30;;;;;;;5.97;2.03;;;;;;;6.43;100.00;102377.78;5115991;27;20065;-88
2022/01/25 06:01:57;;;;;;;6.05;1.40;;;;;;;6.86;100.00;102417.06;5114138;28;20057;-88
2022/01/25 06:04:24;;;;;;;5.38;2.00;;;;;;;6.55;100.00;102406.50;5115807;28;20051;-88
2022/01/25 06:06:51;;;;;;;7.88;2.55;;;;;;;5.99;100.00;102412.16;5114456;27;20051;-88
2022/01/25 06:09:18;;;;;;;8.02;2.40;;;;;;;6.04;100.00;102432.13;5112534;28;20050;-85
2022/01/25 06:11:45;;;;;;;6.55;2.22;;;;;;;5.58;100.00;102371.91;5131605;27;20047;-85
2022/01/25 06:14:11;;;;;;;7.13;2.03;;;;;;;5.51;100.00;102375.31;5114901;28;20053;-85
2022/01/25 06:16:38;;;;;;;7.68;2.58;;;;;;;5.21;100.00;102368.06;5133977;28;20043;-86
2022/01/25 06:19:05;;;;;;;4.88;1.85;;;;;;;5.36;100.00;102368.22;5115214;28;20387;-84
2022/01/25 06:21:35;;;;;;;6.00;1.90;;;;;;;5.86;100.00;102405.94;5113664;28;20039;-85
2022/01/25 06:24:02;;;;;;;5.78;1.88;;;;;;;5.81;100.00;102374.72;5133752;28;20043;-86
2022/01/25 06:26:29;;;;;;;6.32;2.30;;;;;;;5.83;100.00;102357.41;5114932;28;20039;-86
2022/01/25 06:28:56;;;;;;;8.18;2.33;;;;;;;5.58;100.00;102334.63;5133050;28;20053;-86
2022/01/25 06:31:23;;;;;;;5.38;2.28;;;;;;;5.98;100.00;102361.88;5120490;28;20043;-87
2022/01/25 06:33:50;;;;;;;7.50;1.92;;;;;;;6.06;100.00;102396.59;5115334;28;20075;-86
2022/01/25 06:36:18;;;;;;;5.22;2.00;;;;;;;5.93;100.00;102375.66;5132732;28;20043;-87
2022/01/25 06:38:45;;;;;;;6.60;2.08;;;;;;;5.98;100.00;102392.19;5094923;28;20074;-87
2022/01/25 06:41:14;;;;;;;7.57;2.00;;;;;;;5.63;100.00;102387.53;5124652;28;20051;-87
2022/01/25 06:43:41;;;;;;;6.63;2.50;;;;;;;5.76;100.00;102401.53;5129809;28;20503;-88
2022/01/25 06:46:08;;;;;;;6.05;2.15;;;;;;;5.80;100.00;102406.75;5113526;28;20043;-86
2022/01/25 06:48:35;;;;;;;5.60;2.10;;;;;;;5.69;100.00;102385.00;5132844;27;20580;-85
2022/01/25 06:51:02;;;;;;;4.78;2.00;;;;;;;5.79;100.00;102402.44;5135376;27;20058;-85
2022/01/25 06:53:29;;;;;;;7.40;2.22;;;;;;;5.73;100.00;102376.38;5116010;27;20039;-86
2022/01/25 06:55:55;;;;;;;4.95;2.42;;;;;;;5.94;100.00;102412.06;5134776;27;20090;-87
2022/01/25 06:58:22;;;;;;;5.30;1.75;;;;;;;6.10;100.00;102405.31;5114620;28;20785;-86
2022/01/25 07:00:49;;;;;;;7.90;2.55;;;;;;;6.08;100.00;102381.88;5105017;27;20047;-86
2022/01/25 07:03:16;;;;;;;7.38;2.40;;;;;;;6.29;100.00;102388.09;5114922;27;20055;-86
2022/01/25 07:05:43;;;;;;;7.95;3.00;;;;;;;6.54;100.00;102403.88;5112931;28;20044;-86
2022/01/25 07:08:10;;;;;;;13.40;3.90;;;;;;;6.86;100.00;102401.44;5105829;27;20054;-86
2022/01/25 07:10:37;;;;;;;10.35;3.30;;;;;;;6.49;100.00;102351.78;5116735;27;20118;-85
2022/01/25 07:13:03;;;;;;;8.55;2.95;;;;;;;6.91;100.00;102417.09;5125254;27;20130;-86
2022/01/25 07:15:30;;;;;;;12.77;4.50;;;;;;;6.64;100.00;102372.69;5126711;27;20044;-85
2022/01/25 07:17:57;;;;;;;7.55;3.05;;;;;;;6.76;100.00;102402.25;5110628;27;20097;-85
2022/01/25 07:20:25;;;;;;;6.97;2.60;;;;;;;6.49;100.00;102377.81;5127893;27;20074;-85
2022/01/25 07:22:52;;;;;;;6.68;3.03;;;;;;;6.51;100.00;102422.06;5110467;27;20160;-86
2022/01/25 07:25:20;;;;;;;6.97;2.38;;;;;;;6.16;100.00;102426.16;5130068;27;20047;-86
2022/01/25 07:27:46;;;;;;;6.93;2.10;;;;;;;5.46;100.00;102398.63;5110403;27;20051;-85
2022/01/25 07:30:13;;;;;;;6.00;1.90;;;;;;;5.33;100.00;102352.63;5126424;27;20043;-85
2022/01/25 07:32:40;;;;;;;5.55;2.05;;;;;;;5.57;100.00;102396.13;5109788;27;20051;-85
2022/01/25 07:35:13;;;;;;;5.15;1.83;;;;;;;5.69;100.00;102401.47;5110742;27;20044;-85
2022/01/25 07:37:46;;;;;;;7.72;2.10;;;;;;;5.76;100.00;102398.94;5129594;27;20050;-85
2022/01/25 07:40:17;;;;;;;5.18;1.77;;;;;;;5.59;100.00;102402.22;5128382;27;20163;-90
2022/01/25 07:42:54;;;;;;;5.55;2.25;;;;;;;5.38;100.00;102379.50;5131893;27;20453;-86
2022/01/25 07:45:34;;;;;;;6.28;2.40;;;;;;;5.71;100.00;102417.06;5128619;27;20702;-86
2022/01/25 07:48:08;;;;;;;7.00;2.20;;;;;;;5.78;100.00;102412.81;5116467;27;20401;-86
2022/01/25 07:50:37;;;;;;;4.78;1.85;;;;;;;5.68;100.00;102398.84;5128746;27;20122;-87
2022/01/25 07:53:04;;;;;;;6.18;1.90;;;;;;;5.58;100.00;102376.22;5129714;27;20470;-86
2022/01/25 07:55:31;;;;;;;7.93;2.22;;;;;;;5.81;100.00;102424.09;5122646;27;20512;-86
2022/01/25 07:57:58;;;;;;;6.20;2.38;;;;;;;5.58;100.00;102410.00;5130884;27;20477;-86
2022/01/25 08:00:24;;;;;;;5.35;2.00;;;;;;;5.48;100.00;102394.31;5128050;27;20496;-86
2022/01/25 08:02:51;;;;;;;6.40;2.20;;;;;;;5.50;100.00;102425.53;5117646;27;20229;-87
2022/01/25 08:05:24;;;;;;;6.43;2.33;;;;;;;5.89;100.00;102408.56;5115174;27;20050;-87
2022/01/25 08:08:00;;;;;;;5.88;2.30;;;;;;;5.71;100.00;102411.88;5109157;28;20058;-87
2022/01/25 08:10:31;;;;;;;5.43;2.08;;;;;;;5.75;100.00;102404.97;5127763;27;20109;-87
2022/01/25 08:12:59;;;;;;;10.50;2.78;;;;;;;5.72;100.00;102390.22;5134445;27;20078;-87
2022/01/25 08:15:49;;;;;;;6.95;2.40;;;;;;;5.73;100.00;102370.31;5107130;27;20070;-88
2022/01/25 08:18:26;;;;;;;10.75;3.05;;;;;;;5.47;100.00;102339.75;5126885;27;20043;-86
2022/01/25 08:21:08;;;;;;;5.50;2.13;;;;;;;5.83;100.00;102401.59;5125440;27;20047;-87
2022/01/25 08:23:35;;;;;;;9.00;3.15;;;;;;;5.93;100.00;102412.91;5116985;27;20079;-87
2022/01/25 08:26:06;;;;;;;5.72;2.35;;;;;;;5.77;100.00;102383.34;5123201;27;20673;-87
2022/01/25 08:28:42;;;;;;;7.55;2.63;;;;;;;5.63;100.00;102366.75;5130747;27;20205;-86
2022/01/25 08:31:13;;;;;;;7.22;2.35;;;;;;;5.55;100.00;102371.88;5114415;27;20239;-87
2022/01/25 08:33:40;;;;;;;7.05;2.92;;;;;;;5.90;100.00;102412.91;5107153;27;20069;-87
2022/01/25 08:36:12;;;;;;;8.27;2.28;;;;;;;5.82;100.00;102412.81;5110897;27;20040;-88
2022/01/25 08:38:47;;;;;;;8.38;2.50;;;;;;;5.61;100.00;102386.66;5112614;27;20396;-86
2022/01/25 08:41:17;;;;;;;8.80;2.72;;;;;;;5.47;100.00;102369.22;5126462;27;20051;-86
2022/01/25 08:43:48;;;;;;;7.13;2.50;;;;;;;5.49;100.00;102390.03;5128071;27;20104;-86
2022/01/25 08:46:17;;;;;;;7.95;3.03;;;;;;;5.67;100.00;102405.78;5143681;27;20134;-87
2022/01/25 08:48:51;;;;;;;11.40;3.05;;;;;;;5.45;100.00;102391.72;5117261;27;20483;-86
2022/01/25 08:51:20;;;;;;;7.63;3.53;;;;;;;5.45;100.00;102407.31;5125026;27;20126;-87
2022/01/25 08:53:50;;;;;;;9.52;3.30;;;;;;;5.67;100.00;102384.13;5130055;27;20125;-86
2022/01/25 08:56:18;;;;;;;9.13;3.63;;;;;;;5.72;100.00;102416.22;5112441;27;20050;-87
2022/01/25 08:58:47;;;;;;;9.93;4.18;;;;;;;6.07;100.00;102418.28;5115561;27;20092;-87
2022/01/25 09:01:14;;;;;;;9.60;3.25;;;;;;;6.43;100.00;102409.88;5114441;27;20509;-86
2022/01/25 09:03:41;;;;;;;9.32;3.72;;;;;;;6.50;100.00;102431.63;5117454;27;20429;-87
2022/01/25 09:06:09;;;;;;;10.75;3.80;;;;;;;6.41;100.00;102421.13;5134536;27;20128;-87
2022/01/25 09:08:36;;;;;;;9.95;3.78;;;;;;;6.67;100.00;102410.00;5134551;27;20051;-87
2022/01/25 09:11:05;;;;;;;11.23;4.60;;;;;;;6.66;100.00;102403.94;5132017;27;20397;-86
2022/01/25 09:13:32;;;;;;;8.20;3.60;;;;;;;6.76;100.00;102410.91;5109126;28;20600;-86
2022/01/25 09:16:00;;;;;;;10.48;3.92;;;;;;;6.59;100.00;102374.41;5114177;27;20047;-87
2022/01/25 09:18:28;;;;;;;8.52;3.13;;;;;;;6.13;100.00;102353.31;5132693;27;20043;-86
2022/01/25 09:20:56;;;;;;;11.27;3.58;;;;;;;6.47;100.00;102406.41;5123921;27;20044;-87
2022/01/25 09:23:24;;;;;;;8.02;2.97;;;;;;;6.47;100.00;102389.94;5102860;28;20061;-86
2022/01/25 09:25:52;;;;;;;11.38;3.75;;;;;;;6.28;100.00;102407.16;5122393;27;20488;-86
2022/01/25 09:28:19;;;;;;;8.55;3.33;;;;;;;6.35;100.00;102393.34;5109262;27;20048;-87
2022/01/25 09:30:46;;;;;;;9.38;3.08;;;;;;;5.97;100.00;102375.75;5112422;27;20096;-86
2022/01/25 09:33:19;;;;;;;;;;;;;;;6.49;100.00;102400.38;5130373;27;20066;-87
2022/01/25 09:35:46;;;;;;;9.38;3.50;;;;;;;6.37;100.00;102338.72;5121939;27;19923;-89
2022/01/25 09:38:12;;;;;;;12.73;3.63;;;;;;;6.71;100.00;102344.06;5115631;27;20047;-89
2022/01/25 09:40:40;;;;;;;7.60;2.85;;;;;;;6.86;100.00;102367.59;5123165;27;20054;-89
2022/01/25 09:43:07;;;;;;;8.48;2.60;;;;;;;7.07;100.00;102373.75;5106565;27;20059;-89
2022/01/25 09:45:36;;;;;;;8.30;2.67;;;;;;;7.10;100.00;102342.47;5108195;28;20073;-90
2022/01/25 09:48:08;;;;;;;7.18;2.92;;;;;;;6.91;100.00;102337.22;5114176;27;20047;-89
2022/01/25 09:50:37;;;;;;;9.52;3.00;;;;;;;7.11;100.00;102358.09;5104395;28;20047;-89
2022/01/25 09:53:06;;;;;;;8.50;3.25;;;;;;;7.07;100.00;102322.50;5103310;28;20066;-90
2022/01/25 09:55:36;;;;;;;12.07;3.97;;;;;;;7.49;100.00;102378.19;5129992;27;20130;-91
2022/01/25 09:58:03;;;;;;;8.18;3.10;;;;;;;7.51;100.00;102388.63;5102574;28;20058;-90
2022/01/25 10:00:33;;;;;;;9.63;2.88;;;;;;;7.30;100.00;102330.38;5105029;27;20046;-90
2022/01/25 10:03:12;;;;;;;8.60;3.25;;;;;;;7.46;100.00;102356.47;5115150;28;20039;-90
2022/01/25 10:05:43;;;;;;;9.18;3.05;;;;;;;7.92;100.00;102374.72;5131685;27;20051;-91
2022/01/25 10:08:13;;;;;;;8.35;2.70;;;;;;;7.96;100.00;102347.75;5111228;28;20122;-91
2022/01/25 10:10:48;;;;;;;9.32;2.78;;;;;;;8.11;100.00;102360.81;5129807;27;20047;-90
2022/01/25 10:13:18;;;;;;;9.18;4.20;;;;;;;8.10;100.00;102377.31;5131540;27;20047;-90
2022/01/25 10:15:45;;;;;;;9.55;2.90;;;;;;;7.94;100.00;102344.28;5125965;27;20057;-91
2022/01/25 10:18:19;;;;;;;8.10;2.90;;;;;;;8.27;100.00;102381.63;5114967;28;20074;-91
2022/01/25 10:20:49;;;;;;;7.93;2.88;;;;;;;8.08;100.00;102355.56;5107716;28;20404;-92
2022/01/25 10:23:20;;;;;;;8.57;2.75;;;;;;;8.46;100.00;102393.81;5129035;27;20047;-91
2022/01/25 10:25:49;;;;;;;9.63;2.83;;;;;;;8.52;100.00;102393.81;5107879;27;20085;-91
2022/01/25 10:28:24;;;;;;;8.90;3.25;;;;;;;8.66;100.00;102358.97;5120128;27;20532;-92
2022/01/25 10:30:55;;;;;;;8.15;2.70;;;;;;;8.62;100.00;102370.28;5115063;27;20070;-92
2022/01/25 10:33:37;;;;;;;7.63;2.35;;;;;;;8.73;100.00;102373.72;5105921;27;20077;-91
2022/01/25 10:36:24;;;;;;;12.40;3.33;;;;;;;8.52;100.00;102352.03;5128351;27;20039;-91
2022/01/25 10:38:54;;;;;;;9.63;3.58;;;;;;;8.52;100.00;102328.53;5124385;27;20127;-92
2022/01/25 10:41:27;;;;;;;7.90;2.88;;;;;;;8.18;100.00;102279.03;5114333;27;20477;-91
2022/01/25 10:43:57;;;;;;;7.07;2.93;;;;;;;8.57;100.00;102317.19;5127664;27;20382;-92
2022/01/25 10:46:29;;;;;;;10.43;2.97;;;;;;;8.66;100.00;102325.03;5117291;27;20652;-92
2022/01/25 10:48:56;;;;;;;8.85;3.38;;;;;;;8.54;100.00;102357.25;5131112;27;20265;-92
2022/01/25 10:51:29;;;;;;;14.52;3.83;;;;;;;8.44;100.00;102285.06;5134178;27;20130;-91
2022/01/25 10:54:07;;;;;;;;;;;;;;;9.39;100.00;102349.00;5138316;27;20142;-93
2022/01/25 10:56:41;;;;;;;7.95;2.45;;;;;;;9.49;100.00;102343.69;5117649;28;19919;-93
2022/01/25 10:59:13;;;;;;;7.05;2.47;;;;;;;9.42;100.00;102331.53;5117434;28;20473;-92
2022/01/25 11:01:50;;;;;;;9.65;2.90;;;;;;;8.85;100.00;102277.03;5118976;27;20054;-93
2022/01/25 11:04:21;;;;;;;7.60;2.45;;;;;;;9.48;100.00;102344.56;5113987;27;20055;-93
2022/01/25 11:06:58;;;;;;;8.73;3.00;;;;;;;9.53;100.00;102331.47;5113297;28;20054;-92
2022/01/25 11:09:34;;;;;;;12.88;3.50;;;;;;;8.98;100.00;102308.28;5101336;28;20134;-92
2022/01/25 11:12:02;;;;;;;9.10;2.95;;;;;;;9.42;100.00;102341.13;5103768;28;20400;-92
2022/01/25 11:17:14;;;;;;;8.18;3.03;;;;;;;9.12;100.00;102270.75;5126314;27;20061;-92
2022/01/25 11:19:42;;;;;;;9.38;2.75;;;;;;;9.52;100.00;102331.47;5120432;27;20466;-92
2022/01/25 11:22:12;;;;;;;13.45;3.92;;;;;;;9.28;100.00;102288.97;5138386;27;20051;-93
2022/01/25 11:24:39;;;;;;;10.40;3.20;;;;;;;8.83;100.00;102254.41;5122800;27;20178;-92
2022/01/25 11:27:07;;;;;;;10.40;2.90;;;;;;;9.53;100.00;102307.94;5120327;27;20087;-92
2022/01/25 11:29:37;;;;;;;9.25;2.78;;;;;;;9.43;100.00;102311.50;5124394;27;20477;-92
2022/01/25 11:32:10;;;;;;;10.43;3.15;;;;;;;9.09;100.00;102242.03;5133017;27;20091;-93
2022/01/25 11:34:39;;;;;;;9.32;2.63;;;;;;;9.68;100.00;102305.19;5120432;27;20059;-93
2022/01/25 11:37:08;;;;;;;9.80;3.63;;;;;;;9.40;100.00;102273.19;5111182;27;20086;-93
2022/01/25 11:39:43;;;;;;;9.27;3.20;;;;;;;9.26;100.00;102251.47;5120590;27;20047;-93
2022/01/25 11:42:23;;;;;;;8.65;2.72;;;;;;;9.59;100.00;102255.56;5111056;28;20477;-93
2022/01/25 11:44:53;;;;;;;11.07;3.47;;;;;;;9.63;100.00;102303.47;5099824;28;20054;-93
2022/01/25 11:47:23;;;;;;;7.72;2.75;;;;;;;9.62;100.00;102276.47;5099958;28;20039;-93
2022/01/25 11:49:55;;;;;;;9.60;3.72;;;;;;;9.45;100.00;102300.13;5103474;27;20043;-93
2022/01/25 11:52:24;;;;;;;8.80;3.03;;;;;;;9.39;100.00;102262.72;5133070;27;20124;-92
2022/01/25 11:54:54;;;;;;;9.20;2.90;;;;;;;9.39;100.00;102241.81;5120189;27;20075;-92
2022/01/25 11:57:24;;;;;;;8.93;3.00;;;;;;;9.48;100.00;102228.66;5120144;27;20071;-93
2022/01/25 11:59:57;;;;;;;10.82;3.13;;;;;;;9.45;100.00;102283.56;5102262;28;20456;-92
2022/01/25 12:02:46;;;;;;;10.25;3.40;;;;;;;9.78;100.00;102264.09;5104389;27;20138;-92
2022/01/25 12:05:25;;;;;;;9.32;2.83;;;;;;;10.12;100.00;102289.91;5107428;28;20047;-92
2022/01/25 12:08:16;;;;;;;7.88;2.90;;;;;;;9.49;100.00;102236.50;5117593;27;20498;-92
2022/01/25 12:10:46;;;;;;;11.27;2.97;;;;;;;9.72;100.00;102245.88;5105649;27;20054;-92
2022/01/25 12:13:27;;;;;;;8.85;3.17;;;;;;;9.71;100.00;102220.59;5103259;28;20051;-92
2022/01/25 12:16:22;;;;;;;10.30;3.10;;;;;;;10.13;100.00;102264.59;5111651;27;20073;-92
2022/01/25 12:18:59;;;;;;;8.32;2.70;;;;;;;10.15;100.00;102247.16;5109468;27;20468;-92
2022/01/25 12:21:44;;;;;;;12.50;2.90;;;;;;;10.00;100.00;102253.41;5107028;28;20082;-93
2022/01/25 12:24:25;;;;;;;9.32;3.08;;;;;;;10.27;100.00;102249.63;5109505;27;20129;-91
2022/01/25 12:27:02;;;;;;;9.65;2.60;;;;;;;10.01;100.00;102250.78;5119149;27;20043;-94
2022/01/25 12:29:35;;;;;;;10.85;2.80;;;;;;;9.90;100.00;102223.88;5115302;28;20044;-93
2022/01/25 12:32:31;;;;;;;6.65;2.40;;;;;;;10.41;100.00;102229.41;5117508;27;20051;-93
2022/01/25 12:35:12;;;;;;;10.35;3.92;;;;;;;10.38;100.00;102231.19;5117144;28;20405;-93
2022/01/25 12:37:42;;;;;;;9.82;2.60;;;;;;;10.60;100.00;102218.66;5107519;28;20048;-92
2022/01/25 12:40:25;;;;;;;9.30;2.67;;;;;;;10.29;100.00;102220.78;5098971;28;20051;-92
2022/01/25 12:43:10;;;;;;;10.20;3.10;;;;;;;10.43;100.00;102208.44;5099164;28;20053;-93
2022/01/25 12:45:44;;;;;;;11.30;3.03;;;;;;;10.37;100.00;102169.25;5099973;28;20051;-93
2022/01/25 12:48:14;;;;;;;8.18;2.17;;;;;;;10.30;100.00;102162.31;5098361;28;20039;-92
2022/01/25 12:50:44;;;;;;;8.65;2.83;;;;;;;10.75;100.00;102201.88;5099775;28;20451;-93
2022/01/25 12:53:14;;;;;;;8.95;2.90;;;;;;;10.54;100.00;102190.81;5111526;27;20122;-93
2022/01/25 12:55:44;;;;;;;7.65;2.42;;;;;;;10.47;100.00;102155.13;5119838;27;20047;-93
2022/01/25 12:58:11;;;;;;;12.85;2.75;;;;;;;9.99;100.00;102131.34;5120943;27;20057;-93
2022/01/25 13:00:44;;;;;;;8.85;2.58;;;;;;;10.61;100.00;102184.59;5119892;27;20065;-90
2022/01/25 13:03:29;;;;;;;8.77;2.60;;;;;;;10.56;100.00;102175.94;5131228;27;20051;-90
2022/01/25 13:05:59;;;;;;;8.77;2.45;;;;;;;10.77;100.00;102171.28;5125524;27;20048;-90
2022/01/25 13:08:29;;;;;;;9.68;2.10;;;;;;;10.99;100.00;102171.78;5115116;27;20067;-92
2022/01/25 13:11:21;;;;;;;9.50;2.45;;;;;;;10.82;100.00;102111.81;5119006;27;20059;-92
2022/01/25 13:16:37;;;;;;;9.85;2.60;;;;;;;10.59;100.00;102147.09;5116969;28;20043;-92
2022/01/25 13:19:05;;;;;;;9.55;2.42;;;;;;;10.43;100.00;102115.03;5119052;27;20066;-92
2022/01/25 13:21:51;;;;;;;9.73;2.65;;;;;;;10.76;100.00;102132.88;5108093;28;20055;-92
2022/01/25 13:24:47;;;;;;;10.27;2.75;;;;;;;10.82;100.00;102146.75;5109038;27;20096;-92
2022/01/25 13:27:17;;;;;;;7.03;1.98;;;;;;;10.92;100.00;102117.75;5115858;27;20047;-93
2022/01/25 13:32:38;;;;;;;14.38;2.53;;;;;;;10.60;100.00;102104.28;5127072;27;20062;-93